Belize, Belize

11:26 AM CST on February 07, 2016 (GMT -0600)
Old Airport Road, Ladyville | | Change Station
CLOSE
Current Station
Personal Weather Station
Location: Belize,
Elevation: 26 ft
Nearby Weather Stations

Elev 26 ft 17.54 °N, 88.30 °W | Updated 14 seconds ago

Scattered Clouds
Scattered Clouds
74.6 °F
Feels Like 77 °F
N
0.0
Wind Variable Wind from WNW
Gusts 4.0 mph

Today
High -- | Low -- °F
--% Chance of Precip.
Yesterday
High -- | Low -- °F
Precip. -- in
Pressure 30.20 in
Visibility 6.2 miles
Clouds Scattered Clouds 2300 ft
Heat Index 77 °F
Dew Point 56 °F
Humidity 53%
Rainfall 0.00 in
Snow Depth Not available.
6:23 AM 5:51 PM
Waning Crescent, 1% visible
METAR MZBZ 071700Z 34014KT 9999 SCT023 24/15 A3020 Q1022 NOSIG
Pressure 30.20 in
Visibility 6.2 miles
Clouds Scattered Clouds 2300 ft
Heat Index 77 °F
Dew Point 56 °F
Humidity 53%
Rainfall 0.00 in
Snow Depth Not available.
6:23 AM 5:51 PM
Waning Crescent, 1% visible
METAR MZBZ 071700Z 34014KT 9999 SCT023 24/15 A3020 Q1022 NOSIG

10-Day Weather Forecast

No radar image for this location.
×

Almanac

Astronomy

Feb. 07, 2016 Rise Set
Actual Time
Civil Twilight
Nautical Twilight
Astronomical Twilight
Moon
Length of Visible Light
Length of Day
Tomorrow will be .
, % of the Moon is Illuminated

Today's Extremes

Country Highs Country Lows

Community

WunderPhotos

Upload Photos

1,891,237 photos uploaded!

WunderBlog® & News

Nearby

Air Quality

  Air Quality AQ Index Pollutant
Not available.

Snow Depth

Station Depth Elevation

Earthquake Activity

City Distance Mag. Time & Date
Minimum magnitude displayed is 2.5.

Coastal Water Temperatures

Place Temperature

Stations

Nearby Weather Stations

Station Location Temp. Windchill Dew Point Humidity Wind Precip. Elev Updated Type